createdAt,value
2023-02-04T00:01:29.995Z,96166.16
2023-02-04T00:03:56.520Z,96153.69
2023-02-04T00:06:23.014Z,96169.28
2023-02-04T00:08:49.532Z,96169.69
2023-02-04T00:11:16.042Z,96154.19
2023-02-04T00:13:42.608Z,96171.00
2023-02-04T00:16:09.299Z,96163.38
2023-02-04T00:18:35.815Z,96153.69
2023-02-04T00:21:02.396Z,96166.59
2023-02-04T00:23:29.140Z,96163.44
2023-02-04T00:25:58.885Z,96161.78
2023-02-04T00:28:25.409Z,96163.56
2023-02-04T00:30:52.091Z,96162.00
2023-02-04T00:33:18.637Z,96167.91
2023-02-04T00:35:45.222Z,96177.59
2023-02-04T00:38:11.752Z,96190.03
2023-02-04T00:40:38.304Z,96178.69
2023-02-04T00:43:05.379Z,96187.50
2023-02-04T00:45:32.010Z,96183.88
2023-02-04T00:47:59.413Z,96181.03
2023-02-04T00:50:25.954Z,96182.06
2023-02-04T00:52:52.608Z,96171.38
2023-02-04T00:55:19.433Z,96176.97
2023-02-04T00:57:49.252Z,96180.81
2023-02-04T01:00:16.098Z,96191.84
2023-02-04T01:02:44.036Z,96192.50
2023-02-04T01:05:10.617Z,96208.13
2023-02-04T01:07:37.876Z,96201.16
2023-02-04T01:10:04.771Z,96200.88
2023-02-04T01:12:31.305Z,96204.38
2023-02-04T01:14:58.224Z,96204.78
2023-02-04T01:17:25.065Z,96211.72
2023-02-04T01:19:53.505Z,96208.03
2023-02-04T01:22:20.253Z,96219.53
2023-02-04T01:24:47.089Z,96217.28
2023-02-04T01:27:32.381Z,96230.94
2023-02-04T01:29:58.952Z,96223.81
2023-02-04T01:32:25.527Z,96242.31
2023-02-04T01:34:52.258Z,96258.09
2023-02-04T01:37:18.905Z,96216.38
2023-02-04T01:39:45.428Z,96218.59
2023-02-04T01:42:13.499Z,96216.13
2023-02-04T01:44:40.304Z,96216.09
2023-02-04T01:47:07.004Z,96236.31
2023-02-04T01:49:33.539Z,96242.84
2023-02-04T01:52:00.246Z,96247.91
2023-02-04T01:54:27.335Z,96248.47
2023-02-04T01:56:55.389Z,96244.25
2023-02-04T01:59:23.801Z,96245.94
2023-02-04T02:01:52.504Z,96250.97
2023-02-04T02:04:29.946Z,96247.19
2023-02-04T02:07:01.692Z,96252.28
2023-02-04T02:09:30.676Z,96250.75
2023-02-04T02:11:57.698Z,96259.56
2023-02-04T02:14:25.910Z,96244.50
2023-02-04T02:16:52.533Z,96256.63
2023-02-04T02:19:35.395Z,96260.75
2023-02-04T02:22:22.077Z,96259.59
2023-02-04T02:24:48.638Z,96263.47
2023-02-04T02:27:15.186Z,96269.53
2023-02-04T02:29:42.903Z,96266.34
2023-02-04T02:32:12.583Z,96271.66
2023-02-04T02:34:39.875Z,96290.69
2023-02-04T02:37:08.947Z,96297.69
2023-02-04T02:39:38.392Z,96295.56
2023-02-04T02:42:05.220Z,96292.34
2023-02-04T02:44:33.008Z,96284.75
2023-02-04T02:47:00.276Z,96289.50
2023-02-04T02:49:29.501Z,96291.53
2023-02-04T02:51:56.040Z,96277.41
2023-02-04T02:54:25.785Z,96287.34
2023-02-04T02:56:55.619Z,96287.34
2023-02-04T02:59:24.207Z,96296.50
2023-02-04T03:02:01.271Z,96303.16
2023-02-04T03:04:33.755Z,96304.97
2023-02-04T03:07:01.310Z,96313.03
2023-02-04T03:09:29.595Z,96299.84
2023-02-04T03:11:56.429Z,96307.81
2023-02-04T03:14:25.310Z,96310.88
2023-02-04T03:16:54.328Z,96319.97
2023-02-04T03:19:22.219Z,96318.59
2023-02-04T03:21:49.515Z,96317.28
2023-02-04T03:24:16.789Z,96322.75
2023-02-04T03:26:43.423Z,96317.66
2023-02-04T03:29:11.939Z,96326.81
2023-02-04T03:31:38.888Z,96330.31
2023-02-04T03:34:05.696Z,96333.22
2023-02-04T03:36:32.613Z,96341.59
2023-02-04T03:38:59.163Z,96335.97
2023-02-04T03:41:25.702Z,96346.97
2023-02-04T03:43:52.220Z,96349.56
2023-02-04T03:46:18.860Z,96345.44
2023-02-04T03:48:45.433Z,96355.31
2023-02-04T03:51:11.984Z,96358.31
2023-02-04T03:53:38.802Z,96365.91
2023-02-04T03:56:05.452Z,96375.84
2023-02-04T03:58:32.018Z,96377.28
2023-02-04T04:00:58.783Z,96378.69
2023-02-04T04:03:25.374Z,96391.06
2023-02-04T04:05:51.885Z,96401.28
2023-02-04T04:08:18.459Z,96398.81
2023-02-04T04:10:45.032Z,96405.53
2023-02-04T04:13:11.778Z,96397.75
2023-02-04T04:15:38.348Z,96403.28
2023-02-04T04:18:04.929Z,96402.50
2023-02-04T04:20:31.770Z,96410.00
2023-02-04T04:22:58.485Z,96412.63
2023-02-04T04:25:25.351Z,96416.00
2023-02-04T04:27:51.905Z,96411.91
2023-02-04T04:30:18.652Z,96413.81
2023-02-04T04:32:45.201Z,96416.00
2023-02-04T04:35:11.701Z,96418.09
2023-02-04T04:37:38.255Z,96417.56
2023-02-04T04:40:05.160Z,96422.56
2023-02-04T04:42:31.705Z,96423.47
2023-02-04T04:44:58.250Z,96432.53
2023-02-04T04:47:24.825Z,96437.22
2023-02-04T04:49:51.371Z,96441.47
2023-02-04T04:52:17.961Z,96446.25
2023-02-04T04:54:44.530Z,96445.06
2023-02-04T04:57:11.094Z,96448.91
2023-02-04T04:59:37.652Z,96445.91
2023-02-04T05:02:04.447Z,96454.72
2023-02-04T05:04:31.057Z,96460.59
2023-02-04T05:06:57.631Z,96465.50
2023-02-04T05:09:24.162Z,96471.41
2023-02-04T05:11:50.687Z,96468.97
2023-02-04T05:14:17.212Z,96473.13
2023-02-04T05:16:43.861Z,96484.16
2023-02-04T05:19:10.436Z,96472.88
2023-02-04T05:21:36.966Z,96479.06
2023-02-04T05:24:03.552Z,96479.44
2023-02-04T05:26:31.274Z,96472.75
2023-02-04T05:29:00.446Z,96474.09
2023-02-04T05:31:27.531Z,96473.59
2023-02-04T05:33:54.558Z,96483.31
2023-02-04T05:36:21.551Z,96480.56
2023-02-04T05:38:48.183Z,96485.25
2023-02-04T05:41:14.717Z,96485.75
2023-02-04T05:43:41.286Z,96484.69
2023-02-04T05:46:07.849Z,96500.72
2023-02-04T05:48:34.460Z,96496.00
2023-02-04T05:51:00.977Z,96505.19
2023-02-04T05:53:27.547Z,96511.94
2023-02-04T05:55:54.108Z,96523.72
2023-02-04T05:58:20.598Z,96529.19
2023-02-04T06:00:47.136Z,96525.50
2023-02-04T06:03:14.502Z,96527.91
2023-02-04T06:05:41.282Z,96537.00
2023-02-04T06:08:07.826Z,96538.66
2023-02-04T06:10:34.434Z,96547.75
2023-02-04T06:13:01.048Z,96557.53
2023-02-04T06:15:27.618Z,96564.06
2023-02-04T06:17:54.210Z,96566.66
2023-02-04T06:20:20.755Z,96568.09
2023-02-04T06:22:47.613Z,96567.91
2023-02-04T06:25:14.238Z,96574.34
2023-02-04T06:27:40.797Z,96577.69
2023-02-04T06:30:07.896Z,96585.50
2023-02-04T06:32:34.469Z,96588.63
2023-02-04T06:35:00.956Z,96589.59
2023-02-04T06:37:27.516Z,96597.31
2023-02-04T06:39:54.671Z,96598.97
2023-02-04T06:42:21.307Z,96598.03
2023-02-04T06:44:47.843Z,96596.16
2023-02-04T06:47:14.363Z,96595.00
2023-02-04T06:49:40.902Z,96595.84
2023-02-04T06:52:07.462Z,96599.28
2023-02-04T06:54:34.103Z,96604.38
2023-02-04T06:57:06.518Z,96604.31
2023-02-04T06:59:38.278Z,96608.69
2023-02-04T07:02:06.872Z,96609.81
2023-02-04T07:04:34.602Z,96611.72
2023-02-04T07:07:01.190Z,96612.66
2023-02-04T07:09:27.715Z,96617.66
2023-02-04T07:11:54.295Z,96610.97
2023-02-04T07:14:20.869Z,96622.47
2023-02-04T07:16:47.450Z,96619.47
2023-02-04T07:19:14.009Z,96622.69
2023-02-04T07:21:40.561Z,96625.09
2023-02-04T07:24:07.143Z,96628.63
2023-02-04T07:26:34.338Z,96639.75
2023-02-04T07:29:00.975Z,96645.53
2023-02-04T07:31:27.762Z,96643.50
2023-02-04T07:33:54.422Z,96645.00
2023-02-04T07:36:21.084Z,96650.72
2023-02-04T07:38:47.950Z,96651.63
2023-02-04T07:41:14.624Z,96654.56
2023-02-04T07:43:41.388Z,96667.44
2023-02-04T07:46:07.981Z,96664.31
2023-02-04T07:48:34.560Z,96676.41
2023-02-04T07:51:01.106Z,96676.50
2023-02-04T07:53:27.657Z,96683.91
2023-02-04T07:55:54.179Z,96675.47
2023-02-04T07:58:20.689Z,96679.88
2023-02-04T08:00:47.244Z,96679.78
2023-02-04T08:03:13.808Z,96675.88
2023-02-04T08:05:40.328Z,96688.41
2023-02-04T08:08:06.853Z,96666.78
2023-02-04T08:10:34.182Z,96675.63
2023-02-04T08:13:00.919Z,96675.22
2023-02-04T08:15:27.439Z,96672.53
2023-02-04T08:17:53.940Z,96682.19
2023-02-04T08:20:20.567Z,96682.53
2023-02-04T08:22:47.157Z,96688.44
2023-02-04T08:25:13.812Z,96690.44
2023-02-04T08:27:40.540Z,96695.44
2023-02-04T08:30:07.681Z,96701.03
2023-02-04T08:32:34.291Z,96700.13
2023-02-04T08:35:01.338Z,96700.84
2023-02-04T08:37:28.196Z,96710.34
2023-02-04T08:39:55.865Z,96714.09
2023-02-04T08:42:22.521Z,96708.72
2023-02-04T08:44:49.226Z,96722.28
2023-02-04T08:47:16.032Z,96722.84
2023-02-04T08:49:42.662Z,96726.38
2023-02-04T08:52:09.375Z,96718.56
2023-02-04T08:54:36.196Z,96728.81
2023-02-04T08:57:02.989Z,96718.19
2023-02-04T08:59:29.711Z,96723.44
2023-02-04T09:01:56.282Z,96721.91
2023-02-04T09:04:23.510Z,96736.00
2023-02-04T09:06:51.373Z,96728.03
2023-02-04T09:09:18.015Z,96731.94
2023-02-04T09:11:44.550Z,96730.56
2023-02-04T09:14:11.393Z,96740.75
2023-02-04T09:16:38.025Z,96735.50
2023-02-04T09:19:05.476Z,96739.78
2023-02-04T09:21:32.010Z,96739.41
2023-02-04T09:23:58.644Z,96738.25
2023-02-04T09:26:25.227Z,96735.72
2023-02-04T09:28:51.748Z,96741.34
2023-02-04T09:31:18.839Z,96746.94
2023-02-04T09:33:45.497Z,96744.09
2023-02-04T09:36:12.388Z,96747.28
2023-02-04T09:38:39.146Z,96761.44
2023-02-04T09:41:12.164Z,96769.28
2023-02-04T09:43:42.898Z,96769.50
2023-02-04T09:46:19.408Z,96771.00
2023-02-04T09:48:46.085Z,96773.34
2023-02-04T09:51:16.755Z,96774.25
2023-02-04T09:53:43.362Z,96778.16
2023-02-04T09:56:11.951Z,96779.84
2023-02-04T09:58:38.478Z,96786.63
2023-02-04T10:01:15.733Z,96784.84
2023-02-04T10:03:48.372Z,96776.66
2023-02-04T10:06:17.511Z,96769.09
2023-02-04T10:08:47.328Z,96771.28
2023-02-04T10:11:14.903Z,96779.47
2023-02-04T10:13:45.057Z,96777.94
2023-02-04T10:16:29.623Z,96771.41
2023-02-04T10:19:01.754Z,96770.34
2023-02-04T10:21:32.085Z,96779.75
2023-02-04T10:24:01.228Z,96779.19
2023-02-04T10:26:29.952Z,96781.25
2023-02-04T10:29:04.626Z,96787.25
2023-02-04T10:31:37.051Z,96784.66
2023-02-04T10:34:07.587Z,96780.97
2023-02-04T10:36:34.296Z,96778.53
2023-02-04T10:39:10.828Z,96781.09
2023-02-04T10:41:39.960Z,96770.97
2023-02-04T10:44:12.762Z,96769.44
2023-02-04T10:46:39.371Z,96780.75
2023-02-04T10:49:17.756Z,96768.59
2023-02-04T10:51:44.635Z,96779.44
2023-02-04T10:54:31.382Z,96766.09
2023-02-04T10:57:14.423Z,96777.25
2023-02-04T10:59:41.927Z,96782.59
2023-02-04T11:03:04.171Z,96786.44
2023-02-04T11:05:35.639Z,96794.31
2023-02-04T11:08:03.794Z,96798.44
2023-02-04T11:10:33.131Z,96789.03
2023-02-04T11:13:01.252Z,96787.66
2023-02-04T11:15:51.222Z,96789.34
2023-02-04T11:18:20.394Z,96788.81
2023-02-04T11:20:52.100Z,96785.22
2023-02-04T11:23:27.457Z,96780.47
2023-02-04T11:26:17.294Z,96785.88
2023-02-04T11:29:16.711Z,96782.31
2023-02-04T11:31:46.511Z,96792.84
2023-02-04T11:34:44.902Z,96801.47
2023-02-04T11:37:28.463Z,96801.44
2023-02-04T11:39:59.921Z,96804.44
2023-02-04T11:42:41.199Z,96802.41
2023-02-04T11:45:17.736Z,96781.88
2023-02-04T11:47:44.567Z,96787.47
2023-02-04T11:50:17.166Z,96791.00
2023-02-04T11:52:43.796Z,96782.34
2023-02-04T11:55:11.961Z,96782.78
2023-02-04T11:57:44.233Z,96783.31
2023-02-04T12:00:19.977Z,96789.97
2023-02-04T12:02:49.185Z,96786.75
2023-02-04T12:05:18.437Z,96792.91
2023-02-04T12:07:45.979Z,96798.22
2023-02-04T12:10:16.829Z,96795.47
2023-02-04T12:12:49.212Z,96792.34
2023-02-04T12:15:21.328Z,96790.16
2023-02-04T12:18:01.039Z,96795.59
2023-02-04T12:20:27.565Z,96806.09
2023-02-04T12:22:54.322Z,96809.78
2023-02-04T12:25:20.854Z,96804.13
2023-02-04T12:27:47.388Z,96796.47
2023-02-04T12:30:14.084Z,96799.97
2023-02-04T12:32:40.604Z,96791.78
2023-02-04T12:35:07.591Z,96791.53
2023-02-04T12:37:34.265Z,96786.22
2023-02-04T12:40:00.797Z,96790.34
2023-02-04T12:42:27.320Z,96788.78
2023-02-04T12:44:53.856Z,96793.13
2023-02-04T12:47:20.411Z,96792.50
2023-02-04T12:49:46.992Z,96796.06
2023-02-04T12:52:13.668Z,96797.22
2023-02-04T12:54:40.196Z,96799.03
2023-02-04T12:57:06.766Z,96781.66
2023-02-04T12:59:33.456Z,96779.81
2023-02-04T13:02:00.072Z,96781.09
2023-02-04T13:04:26.679Z,96784.94
2023-02-04T13:06:53.234Z,96775.66
2023-02-04T13:09:19.778Z,96779.94
2023-02-04T13:11:46.342Z,96781.53
2023-02-04T13:14:12.886Z,96778.03
2023-02-04T13:16:39.425Z,96781.25
2023-02-04T13:19:06.065Z,96779.03
2023-02-04T13:21:32.680Z,96782.56
2023-02-04T13:23:59.818Z,96781.38
2023-02-04T13:26:26.519Z,96781.84
2023-02-04T13:28:53.212Z,96791.53
2023-02-04T13:31:19.930Z,96786.41
2023-02-04T13:33:46.584Z,96789.03
2023-02-04T13:36:13.276Z,96774.53
2023-02-04T13:38:39.938Z,96788.94
2023-02-04T13:41:06.530Z,96793.94
2023-02-04T13:43:33.140Z,96801.94
2023-02-04T13:46:00.660Z,96814.06
2023-02-04T13:48:27.219Z,96819.94
2023-02-04T13:50:53.740Z,96818.13
2023-02-04T13:53:20.245Z,96825.47
2023-02-04T13:55:46.841Z,96829.47
2023-02-04T13:58:13.656Z,96833.84
2023-02-04T14:00:40.306Z,96847.69
2023-02-04T14:03:06.865Z,96840.97
2023-02-04T14:05:33.412Z,96844.31
2023-02-04T14:08:00.977Z,96840.31
2023-02-04T14:10:27.628Z,96856.66
2023-02-04T14:12:54.238Z,96857.56
2023-02-04T14:15:20.762Z,96852.84
2023-02-04T14:17:47.400Z,96866.28
2023-02-04T14:20:14.062Z,96865.84
2023-02-04T14:22:40.759Z,96861.19
2023-02-04T14:25:09.818Z,96862.31
2023-02-04T14:27:38.409Z,96870.69
2023-02-04T14:30:06.173Z,96876.31
2023-02-04T14:32:32.709Z,96872.31
2023-02-04T14:34:59.242Z,96873.91
2023-02-04T14:37:28.388Z,96872.69
2023-02-04T14:39:55.121Z,96885.03
2023-02-04T14:42:21.657Z,96879.97
2023-02-04T14:44:48.216Z,96883.47
2023-02-04T14:47:14.900Z,96882.84
2023-02-04T14:49:41.490Z,96879.50
2023-02-04T14:52:09.713Z,96885.31
2023-02-04T14:54:37.171Z,96887.38
2023-02-04T14:57:04.401Z,96887.81
2023-02-04T14:59:30.931Z,96890.72
2023-02-04T15:01:57.674Z,96885.16
2023-02-04T15:04:24.247Z,96884.22
2023-02-04T15:06:53.852Z,96884.91
2023-02-04T15:09:20.425Z,96884.84
2023-02-04T15:11:47.080Z,96878.41
2023-02-04T15:14:13.759Z,96887.72
2023-02-04T15:16:41.966Z,96885.31
2023-02-04T15:19:09.208Z,96881.75
2023-02-04T15:21:36.044Z,96880.75
2023-02-04T15:24:02.571Z,96891.41
2023-02-04T15:26:29.117Z,96890.06
2023-02-04T15:28:55.682Z,96895.41
2023-02-04T15:31:23.779Z,96905.88
2023-02-04T15:33:50.911Z,96904.59
2023-02-04T15:36:17.522Z,96907.53
2023-02-04T15:38:44.412Z,96914.97
2023-02-04T15:41:31.767Z,96921.03
2023-02-04T15:43:58.323Z,96918.84
2023-02-04T15:46:24.874Z,96923.56
2023-02-04T15:48:51.460Z,96925.84
2023-02-04T15:51:18.033Z,96920.81
2023-02-04T15:53:44.619Z,96928.59
2023-02-04T15:56:11.199Z,96934.22
2023-02-04T15:58:38.378Z,96931.81
2023-02-04T16:01:05.173Z,96940.50
2023-02-04T16:03:31.764Z,96934.66
2023-02-04T16:05:58.326Z,96934.53
2023-02-04T16:08:24.882Z,96936.75
2023-02-04T16:10:53.880Z,96936.00
2023-02-04T16:13:21.217Z,96937.88
2023-02-04T16:15:47.784Z,96942.78
2023-02-04T16:18:14.366Z,96938.50
2023-02-04T16:20:40.885Z,96938.09
2023-02-04T16:23:08.084Z,96943.34
2023-02-04T16:25:35.018Z,96946.22
2023-02-04T16:28:02.350Z,96948.84
2023-02-04T16:30:28.942Z,96944.59
2023-02-04T16:32:55.492Z,96955.25
2023-02-04T16:35:22.088Z,96959.28
2023-02-04T16:37:48.682Z,96967.13
2023-02-04T16:40:15.315Z,96964.50
2023-02-04T16:42:41.863Z,96972.34
2023-02-04T16:45:08.956Z,96973.47
2023-02-04T16:47:35.607Z,96976.69
2023-02-04T16:50:02.672Z,96981.53
2023-02-04T16:52:29.697Z,96969.41
2023-02-04T16:54:56.392Z,96974.84
2023-02-04T16:57:23.224Z,96980.50
2023-02-04T16:59:49.959Z,96975.59
2023-02-04T17:02:16.623Z,96976.59
2023-02-04T17:04:43.151Z,96989.03
2023-02-04T17:07:09.829Z,96992.94
2023-02-04T17:09:36.959Z,96986.69
2023-02-04T17:12:03.628Z,96989.94
2023-02-04T17:14:30.221Z,96996.31
2023-02-04T17:16:56.769Z,97005.94
2023-02-04T17:19:24.192Z,97006.44
2023-02-04T17:21:50.820Z,97006.00
2023-02-04T17:24:17.495Z,97010.31
2023-02-04T17:26:44.036Z,97004.34
2023-02-04T17:29:13.822Z,97007.41
2023-02-04T17:31:43.135Z,97009.56
2023-02-04T17:34:10.602Z,97015.31
2023-02-04T17:36:37.518Z,97016.09
2023-02-04T17:39:05.067Z,97016.03
2023-02-04T17:41:32.406Z,97013.91
2023-02-04T17:43:59.639Z,97017.56
2023-02-04T17:46:26.627Z,97017.75
2023-02-04T17:48:53.340Z,97021.78
2023-02-04T17:51:19.964Z,97014.19
2023-02-04T17:53:46.539Z,97022.81
2023-02-04T17:56:14.506Z,97030.09
2023-02-04T17:58:41.857Z,97024.97
2023-02-04T18:01:18.746Z,97033.38
2023-02-04T18:03:48.617Z,97022.44
2023-02-04T18:06:25.112Z,97033.09
2023-02-04T18:08:52.746Z,97031.59
2023-02-04T18:11:27.418Z,97036.63
2023-02-04T18:13:59.437Z,97040.69
2023-02-04T18:16:30.095Z,97041.59
2023-02-04T18:19:08.429Z,97036.59
2023-02-04T18:21:36.973Z,97031.72
2023-02-04T18:24:20.358Z,97026.78
2023-02-04T18:26:50.106Z,97021.59
2023-02-04T18:29:26.843Z,97033.81
2023-02-04T18:32:18.051Z,97029.78
2023-02-04T18:34:46.958Z,97035.94
2023-02-04T18:37:35.833Z,97033.97
2023-02-04T18:40:23.868Z,97034.59
2023-02-04T18:42:53.982Z,97029.84
2023-02-04T18:45:24.991Z,97040.66
2023-02-04T18:47:55.181Z,97042.16
2023-02-04T18:50:33.384Z,97038.53
2023-02-04T18:53:12.405Z,97033.47
2023-02-04T18:55:41.646Z,97032.91
2023-02-04T18:58:31.050Z,97032.00
2023-02-04T19:01:03.562Z,97036.47
2023-02-04T19:03:33.389Z,97032.06
2023-02-04T19:06:02.459Z,97041.63
2023-02-04T19:08:40.519Z,97040.88
2023-02-04T19:11:23.166Z,97052.97
2023-02-04T19:13:52.835Z,97048.31
2023-02-04T19:16:25.892Z,97045.25
2023-02-04T19:18:56.765Z,97041.56
2023-02-04T19:21:31.421Z,97034.50
2023-02-04T19:24:21.352Z,97046.56
2023-02-04T19:26:55.278Z,97046.22
2023-02-04T19:29:23.153Z,97041.00
2023-02-04T19:31:52.803Z,97040.53
2023-02-04T19:34:38.068Z,97031.28
2023-02-04T19:37:26.410Z,97035.16
2023-02-04T19:39:55.133Z,97039.19
2023-02-04T19:42:28.573Z,97039.56
2023-02-04T19:44:59.240Z,97041.75
2023-02-04T19:47:37.496Z,97043.00
2023-02-04T19:50:13.372Z,97053.56
2023-02-04T19:52:54.407Z,97045.97
2023-02-04T19:55:28.030Z,97045.59
2023-02-04T19:57:58.841Z,97048.94
2023-02-04T20:00:28.412Z,97053.19
2023-02-04T20:02:56.878Z,97045.13
2023-02-04T20:05:24.090Z,97053.03
2023-02-04T20:07:50.604Z,97045.22
2023-02-04T20:10:25.018Z,97045.41
2023-02-04T20:12:55.727Z,97053.78
2023-02-04T20:15:25.546Z,97060.00
2023-02-04T20:17:52.818Z,97055.47
2023-02-04T20:20:29.791Z,97054.94
2023-02-04T20:23:23.074Z,97046.81
2023-02-04T20:25:50.420Z,97050.44
2023-02-04T20:28:36.155Z,97063.84
2023-02-04T20:31:15.567Z,97062.72
2023-02-04T20:33:49.163Z,97054.69
2023-02-04T20:36:18.398Z,97053.03
2023-02-04T20:38:45.781Z,97054.25
2023-02-04T20:41:22.345Z,97063.25
2023-02-04T20:43:49.905Z,97066.41
2023-02-04T20:46:25.636Z,97061.06
2023-02-04T20:48:52.613Z,97063.81
2023-02-04T20:51:23.247Z,97066.66
2023-02-04T20:53:55.280Z,97057.31
2023-02-04T20:56:26.585Z,97067.50
2023-02-04T20:59:12.326Z,97068.09
2023-02-04T21:01:46.855Z,97077.91
2023-02-04T21:04:36.633Z,97078.50
2023-02-04T21:07:16.775Z,97074.16
2023-02-04T21:09:43.431Z,97084.56
2023-02-04T21:12:10.544Z,97090.00
2023-02-04T21:14:37.287Z,97091.88
2023-02-04T21:17:04.455Z,97100.00
2023-02-04T21:19:33.074Z,97089.13
2023-02-04T21:21:59.700Z,97090.81
2023-02-04T21:24:26.864Z,97088.81
2023-02-04T21:26:53.888Z,97085.06
2023-02-04T21:29:20.490Z,97091.41
2023-02-04T21:31:47.059Z,97105.56
2023-02-04T21:34:14.720Z,97103.03
2023-02-04T21:36:41.251Z,97094.50
2023-02-04T21:39:07.821Z,97097.44
2023-02-04T21:41:34.430Z,97097.66
2023-02-04T21:44:00.941Z,97096.09
2023-02-04T21:46:27.560Z,97093.44
2023-02-04T21:48:54.079Z,97104.50
2023-02-04T21:51:20.629Z,97099.59
2023-02-04T21:53:47.194Z,97098.97
2023-02-04T21:56:14.364Z,97099.75
2023-02-04T21:58:40.970Z,97103.28
2023-02-04T22:01:07.504Z,97099.31
2023-02-04T22:03:34.134Z,97116.28
2023-02-04T22:06:00.785Z,97114.69
2023-02-04T22:08:27.409Z,97104.06
2023-02-04T22:10:53.918Z,97104.84
2023-02-04T22:13:20.457Z,97110.00
2023-02-04T22:15:48.100Z,97112.09
2023-02-04T22:18:14.747Z,97105.94
2023-02-04T22:20:41.301Z,97108.94
2023-02-04T22:23:08.026Z,97112.50
2023-02-04T22:25:34.925Z,97113.94
2023-02-04T22:28:01.740Z,97124.88
2023-02-04T22:30:28.335Z,97122.81
2023-02-04T22:32:56.405Z,97126.47
2023-02-04T22:35:23.098Z,97121.84
2023-02-04T22:37:49.637Z,97119.69
2023-02-04T22:40:16.217Z,97123.31
2023-02-04T22:42:42.821Z,97125.31
2023-02-04T22:45:10.304Z,97115.34
2023-02-04T22:47:37.007Z,97115.25
2023-02-04T22:50:03.817Z,97114.69
2023-02-04T22:52:30.391Z,97114.78
2023-02-04T22:54:56.907Z,97109.63
2023-02-04T22:57:23.612Z,97109.53
2023-02-04T22:59:50.138Z,97111.25
2023-02-04T23:02:16.716Z,97107.44
2023-02-04T23:04:44.082Z,97102.00
2023-02-04T23:07:12.257Z,97107.88
2023-02-04T23:09:39.639Z,97103.28
2023-02-04T23:12:15.234Z,97103.34
2023-02-04T23:14:44.503Z,97097.28
2023-02-04T23:17:12.226Z,97097.28
2023-02-04T23:19:38.789Z,97098.28
2023-02-04T23:22:06.050Z,97097.78
2023-02-04T23:24:33.244Z,97102.41
2023-02-04T23:27:00.216Z,97100.09
2023-02-04T23:29:28.425Z,97097.22
2023-02-04T23:31:55.721Z,97096.38
2023-02-04T23:34:22.285Z,97091.09
2023-02-04T23:36:51.109Z,97092.50
2023-02-04T23:39:18.852Z,97095.84
2023-02-04T23:41:45.521Z,97103.72
2023-02-04T23:44:12.324Z,97096.78
2023-02-04T23:46:38.856Z,97095.03
2023-02-04T23:49:05.510Z,97103.50
2023-02-04T23:51:32.919Z,97094.25
2023-02-04T23:53:59.576Z,97100.06
2023-02-04T23:56:26.106Z,97097.75
2023-02-04T23:58:53.593Z,97101.44
